createdAt,value
2022-10-20T00:22:47.482Z,19.00
2022-10-20T00:25:36.829Z,19.00
2022-10-20T00:28:25.981Z,19.10
2022-10-20T00:31:15.203Z,19.00
2022-10-20T00:34:04.619Z,19.00
2022-10-20T00:36:55.198Z,19.00
2022-10-20T00:39:44.640Z,19.00
2022-10-20T00:42:34.159Z,18.90
2022-10-20T00:45:24.757Z,18.90
2022-10-20T00:48:17.712Z,18.90
2022-10-20T00:51:07.364Z,18.80
2022-10-20T00:54:01.515Z,18.90
2022-10-20T00:56:51.712Z,18.70
2022-10-20T00:59:41.939Z,18.80
2022-10-20T01:02:31.536Z,18.70
2022-10-20T01:08:10.907Z,18.40
2022-10-20T01:11:09.762Z,18.50
2022-10-20T01:14:12.225Z,18.60
2022-10-20T01:17:09.583Z,18.60
2022-10-20T01:20:31.566Z,18.50
2022-10-20T01:23:58.180Z,18.40
2022-10-20T01:27:24.415Z,18.40
2022-10-20T01:30:18.966Z,18.40
2022-10-20T01:33:16.463Z,18.40
2022-10-20T01:36:13.200Z,18.50
2022-10-20T01:39:06.836Z,18.50
2022-10-20T01:42:00.722Z,18.50
2022-10-20T01:44:51.545Z,18.50
2022-10-20T01:47:43.713Z,18.50
2022-10-20T01:50:34.133Z,18.50
2022-10-20T01:53:23.578Z,18.50
2022-10-20T01:56:18.497Z,18.50
2022-10-20T01:59:22.647Z,18.50
2022-10-20T02:02:34.042Z,18.50
2022-10-20T02:05:38.885Z,18.50
2022-10-20T02:08:35.829Z,18.40
2022-10-20T02:11:28.611Z,18.40
2022-10-20T02:14:20.160Z,18.30
2022-10-20T02:17:13.119Z,18.30
2022-10-20T02:20:02.450Z,18.40
2022-10-20T02:22:53.535Z,18.30
2022-10-20T02:25:44.195Z,18.30
2022-10-20T02:28:36.176Z,18.30
2022-10-20T02:31:26.131Z,18.40
2022-10-20T02:34:16.537Z,18.40
2022-10-20T02:37:05.741Z,18.40
2022-10-20T02:39:56.218Z,18.30
2022-10-20T02:42:44.920Z,18.40
2022-10-20T02:45:34.339Z,18.30
2022-10-20T02:48:23.695Z,18.20
2022-10-20T02:51:13.869Z,18.20
2022-10-20T02:54:03.689Z,18.20
2022-10-20T02:56:55.397Z,18.20
2022-10-20T02:59:44.623Z,18.20
2022-10-20T03:02:34.074Z,18.20
2022-10-20T03:05:23.308Z,18.20
2022-10-20T03:08:12.297Z,18.20
2022-10-20T03:11:01.674Z,18.20
2022-10-20T03:13:52.468Z,18.20
2022-10-20T03:16:41.630Z,18.10
2022-10-20T03:19:31.226Z,18.10
2022-10-20T03:22:20.880Z,18.10
2022-10-20T03:25:10.444Z,18.10
2022-10-20T03:28:01.156Z,18.00
2022-10-20T03:30:52.652Z,18.00
2022-10-20T03:33:42.280Z,17.90
2022-10-20T03:36:31.630Z,17.90
2022-10-20T03:39:20.580Z,17.90
2022-10-20T03:42:09.957Z,17.90
2022-10-20T03:44:59.669Z,17.90
2022-10-20T03:47:50.799Z,17.90
2022-10-20T03:50:40.373Z,18.00
2022-10-20T03:53:29.474Z,17.90
2022-10-20T03:56:20.590Z,17.80
2022-10-20T03:59:11.447Z,17.80
2022-10-20T04:02:01.732Z,17.80
2022-10-20T04:38:51.828Z,17.50
2022-10-20T04:41:41.825Z,17.50
2022-10-20T04:44:31.420Z,17.50
2022-10-20T04:47:21.231Z,17.50
2022-10-20T04:53:01.244Z,17.20
2022-10-20T04:55:57.867Z,17.20
2022-10-20T04:58:49.577Z,17.30
2022-10-20T05:01:39.134Z,17.30
2022-10-20T05:04:28.539Z,17.30
2022-10-20T05:07:18.105Z,17.30
2022-10-20T05:10:08.427Z,17.30
2022-10-20T05:12:59.069Z,17.30
2022-10-20T05:15:54.138Z,17.30
2022-10-20T05:18:43.767Z,17.30
2022-10-20T05:21:33.912Z,17.30
2022-10-20T05:24:26.486Z,17.30
2022-10-20T05:27:17.574Z,17.30
2022-10-20T05:30:08.786Z,17.20
2022-10-20T05:32:57.988Z,17.20
2022-10-20T05:35:48.710Z,17.20
2022-10-20T05:38:38.502Z,17.20
2022-10-20T05:41:31.159Z,17.20
2022-10-20T05:44:23.073Z,17.20
2022-10-20T05:47:13.823Z,17.30
2022-10-20T05:50:02.844Z,17.40
2022-10-20T05:52:52.460Z,17.40
2022-10-20T05:55:41.779Z,17.40
2022-10-20T05:58:31.005Z,17.30
2022-10-20T06:01:24.137Z,17.30
2022-10-20T06:04:15.579Z,17.30
2022-10-20T06:07:06.163Z,17.30
2022-10-20T06:09:55.447Z,17.40
2022-10-20T06:12:44.476Z,17.40
2022-10-20T06:15:34.887Z,17.40
2022-10-20T06:18:25.475Z,17.40
2022-10-20T06:21:18.581Z,17.40
2022-10-20T06:24:09.012Z,17.40
2022-10-20T06:26:58.348Z,17.30
2022-10-20T06:29:48.256Z,17.40
2022-10-20T06:32:38.004Z,17.40
2022-10-20T06:35:27.733Z,17.50
2022-10-20T06:38:18.432Z,17.60
2022-10-20T06:41:09.761Z,17.70
2022-10-20T06:44:00.005Z,17.70
2022-10-20T06:46:49.808Z,17.70
2022-10-20T06:49:38.947Z,17.70
2022-10-20T06:52:27.858Z,17.70
2022-10-20T06:55:18.455Z,17.80
2022-10-20T06:58:07.969Z,17.80
2022-10-20T07:01:02.622Z,17.80
2022-10-20T07:03:55.267Z,17.80
2022-10-20T07:06:47.458Z,17.90
2022-10-20T07:09:36.910Z,17.90
2022-10-20T07:12:27.947Z,17.80
2022-10-20T07:15:17.543Z,17.80
2022-10-20T07:18:06.662Z,17.80
2022-10-20T07:21:01.361Z,17.80
2022-10-20T07:23:51.915Z,17.90
2022-10-20T07:26:42.774Z,17.80
2022-10-20T07:32:22.985Z,17.90
2022-10-20T07:35:12.612Z,17.90
2022-10-20T07:38:01.946Z,18.00
2022-10-20T07:40:51.048Z,18.10
2022-10-20T07:43:40.597Z,18.10
2022-10-20T07:46:31.399Z,18.20
2022-10-20T07:52:31.577Z,18.40
2022-10-20T07:55:37.721Z,18.40
2022-10-20T07:58:27.656Z,18.40
2022-10-20T08:01:16.924Z,18.40
2022-10-20T08:04:07.854Z,18.40
2022-10-20T08:06:57.182Z,18.40
2022-10-20T08:09:47.644Z,18.30
2022-10-20T08:12:37.364Z,18.20
2022-10-20T08:15:35.757Z,18.20
2022-10-20T08:18:25.195Z,18.20
2022-10-20T08:21:18.993Z,18.20
2022-10-20T08:24:09.401Z,18.40
2022-10-20T08:26:58.901Z,18.40
2022-10-20T08:29:55.273Z,18.50
2022-10-20T08:32:55.722Z,18.70
2022-10-20T08:35:44.964Z,18.80
2022-10-20T08:38:36.319Z,18.90
2022-10-20T08:41:34.470Z,19.00
2022-10-20T09:41:14.774Z,20.30
2022-10-20T09:44:07.851Z,20.50
2022-10-20T09:49:47.518Z,20.60
2022-10-20T09:52:48.014Z,20.70
2022-10-20T09:55:42.379Z,20.80
2022-10-20T09:58:34.928Z,20.80
2022-10-20T10:01:24.674Z,20.80
2022-10-20T10:04:33.320Z,20.80
2022-10-20T10:07:33.896Z,20.90
2022-10-20T10:10:28.885Z,21.00
2022-10-20T10:13:26.899Z,21.00
2022-10-20T10:16:19.495Z,21.00
2022-10-20T10:19:09.440Z,21.10
2022-10-20T10:22:00.696Z,21.20
2022-10-20T10:24:51.711Z,21.20
2022-10-20T10:27:40.822Z,21.20
2022-10-20T10:30:33.562Z,21.20
2022-10-20T10:33:29.597Z,21.20
2022-10-20T10:36:28.849Z,21.10
2022-10-20T10:39:18.289Z,21.00
2022-10-20T10:42:59.978Z,21.00
2022-10-20T10:45:57.521Z,21.10
2022-10-20T10:49:10.360Z,21.20
2022-10-20T10:52:07.818Z,21.40
2022-10-20T10:55:21.238Z,21.50
2022-10-20T10:58:31.063Z,21.50
2022-10-20T11:01:49.710Z,21.60
2022-10-20T11:05:22.545Z,21.70
2022-10-20T11:08:24.319Z,21.70
2022-10-20T11:11:24.374Z,21.80
2022-10-20T11:14:24.416Z,22.00
2022-10-20T11:17:28.871Z,22.00
2022-10-20T11:20:34.952Z,22.10
2022-10-20T11:23:50.433Z,22.10
2022-10-20T11:26:43.183Z,22.00
2022-10-20T11:29:35.782Z,21.90
2022-10-20T11:32:31.052Z,21.90
2022-10-20T11:35:30.993Z,21.90
2022-10-20T11:38:25.611Z,21.90
2022-10-20T11:41:19.159Z,21.70
2022-10-20T11:44:13.856Z,21.70
2022-10-20T11:47:05.862Z,21.70
2022-10-20T11:49:55.075Z,21.70
2022-10-20T11:53:09.909Z,21.70
2022-10-20T11:56:35.371Z,21.80
2022-10-20T11:59:51.041Z,22.10
2022-10-20T12:03:23.640Z,22.10
2022-10-20T12:33:20.388Z,22.50
2022-10-20T12:36:35.974Z,22.50
2022-10-20T12:39:30.965Z,22.50
2022-10-20T12:42:23.871Z,22.50
2022-10-20T12:45:31.693Z,22.50
2022-10-20T12:48:24.932Z,22.50
2022-10-20T12:51:27.693Z,22.60
2022-10-20T12:54:28.099Z,22.50
2022-10-20T12:57:31.867Z,22.40
2022-10-20T13:00:58.856Z,22.30
2022-10-20T13:03:52.025Z,21.70
2022-10-20T13:06:45.582Z,21.90
2022-10-20T13:10:00.322Z,21.80
2022-10-20T13:12:52.990Z,21.80
2022-10-20T13:15:49.134Z,21.70
2022-10-20T13:18:44.489Z,21.80
2022-10-20T13:21:36.592Z,21.60
2022-10-20T13:24:29.701Z,21.80
2022-10-20T13:27:20.133Z,22.00
2022-10-20T13:30:11.273Z,22.20
2022-10-20T13:33:18.032Z,22.50
2022-10-20T13:36:22.025Z,22.70
2022-10-20T13:39:19.001Z,22.80
2022-10-20T13:42:19.935Z,22.90
2022-10-20T14:25:24.320Z,22.20
2022-10-20T14:28:20.685Z,22.30
2022-10-20T14:34:03.839Z,21.90
2022-10-20T14:36:55.248Z,22.00
2022-10-20T14:39:44.577Z,21.90
2022-10-20T14:42:34.944Z,21.80
2022-10-20T14:45:25.535Z,21.80
2022-10-20T14:48:18.378Z,21.80
2022-10-20T14:51:39.825Z,21.80
2022-10-20T14:54:37.002Z,21.70
2022-10-20T14:57:33.276Z,21.70
2022-10-20T15:00:30.929Z,21.60
2022-10-20T15:03:22.311Z,21.50
2022-10-20T15:06:16.913Z,21.50
2022-10-20T15:09:07.087Z,21.50
2022-10-20T15:11:56.645Z,21.50
2022-10-20T15:14:48.929Z,21.40
2022-10-20T15:17:40.056Z,21.40
2022-10-20T15:20:38.966Z,21.30
2022-10-20T15:23:29.794Z,21.20
2022-10-20T15:26:18.494Z,21.20
2022-10-20T15:29:09.526Z,21.20
2022-10-20T15:31:58.455Z,21.20
2022-10-20T15:34:47.694Z,21.10
2022-10-20T15:37:37.902Z,21.10
2022-10-20T15:40:27.232Z,21.10
2022-10-20T15:43:19.531Z,21.20
2022-10-20T15:46:11.028Z,21.20
2022-10-20T15:49:00.065Z,21.10
2022-10-20T15:51:50.746Z,21.10
2022-10-20T15:54:41.370Z,21.00
2022-10-20T15:57:30.649Z,21.00
2022-10-20T16:00:21.189Z,20.90
2022-10-20T16:03:14.732Z,20.90
2022-10-20T16:06:04.580Z,20.80
2022-10-20T16:08:53.978Z,20.80
2022-10-20T16:11:44.928Z,20.70
2022-10-20T16:14:34.059Z,20.60
2022-10-20T16:17:23.778Z,20.60
2022-10-20T16:20:13.870Z,20.60
2022-10-20T16:23:03.461Z,20.60
2022-10-20T16:25:52.569Z,20.60
2022-10-20T16:28:44.259Z,20.60
2022-10-20T16:31:33.401Z,20.60
2022-10-20T16:34:22.180Z,20.60
2022-10-20T16:37:11.826Z,20.50
2022-10-20T16:40:01.443Z,20.50
2022-10-20T16:42:50.681Z,20.40
2022-10-20T16:45:43.010Z,20.40
2022-10-20T16:48:34.649Z,20.40
2022-10-20T16:51:27.007Z,20.40
2022-10-20T16:54:16.750Z,20.30
2022-10-20T16:57:07.517Z,20.30
2022-10-20T16:59:57.868Z,20.30
2022-10-20T17:02:49.307Z,20.30
2022-10-20T17:05:38.521Z,20.30
2022-10-20T17:08:28.615Z,20.30
2022-10-20T17:11:20.674Z,20.30
2022-10-20T17:14:09.848Z,20.20
2022-10-20T17:17:00.273Z,20.20
2022-10-20T17:19:51.552Z,20.20
2022-10-20T17:22:40.800Z,20.20
2022-10-20T17:25:29.704Z,20.20
2022-10-20T17:28:19.795Z,20.10
2022-10-20T17:31:10.728Z,20.20
2022-10-20T17:34:00.438Z,20.10
2022-10-20T17:36:53.664Z,20.10
2022-10-20T17:39:42.970Z,20.00
2022-10-20T17:42:34.633Z,19.90
2022-10-20T17:45:24.117Z,19.80
2022-10-20T17:48:13.771Z,19.80
2022-10-20T17:51:04.389Z,19.90
2022-10-20T17:53:58.392Z,19.90
2022-10-20T17:56:48.167Z,19.90
2022-10-20T17:59:47.386Z,19.90
2022-10-20T18:02:48.377Z,19.90
2022-10-20T18:05:38.053Z,19.80
2022-10-20T18:08:27.013Z,19.80
2022-10-20T18:11:21.671Z,19.80
2022-10-20T18:14:10.890Z,19.80
2022-10-20T18:17:00.149Z,19.70
2022-10-20T18:19:49.639Z,19.80
2022-10-20T18:22:40.354Z,19.80
2022-10-20T18:25:30.011Z,19.80
2022-10-20T18:28:20.867Z,19.70
2022-10-20T18:31:12.688Z,19.70
2022-10-20T18:34:06.949Z,19.70
2022-10-20T18:36:58.183Z,19.60
2022-10-20T18:39:47.696Z,19.50
2022-10-20T18:42:36.970Z,19.50
2022-10-20T18:45:28.544Z,19.50
2022-10-20T18:48:18.461Z,19.40
2022-10-20T18:51:09.096Z,19.50
2022-10-20T18:53:59.905Z,19.50
2022-10-20T18:56:49.256Z,19.40
2022-10-20T18:59:39.090Z,19.50
2022-10-20T19:02:31.228Z,19.50
2022-10-20T19:05:20.568Z,19.50
2022-10-20T19:08:09.076Z,19.40
2022-10-20T19:10:58.518Z,19.40
2022-10-20T19:13:47.843Z,19.40
2022-10-20T19:16:36.893Z,19.30
2022-10-20T19:19:27.569Z,19.30
2022-10-20T19:22:17.560Z,19.20
2022-10-20T19:25:07.815Z,18.90
2022-10-20T19:27:57.033Z,19.00
2022-10-20T19:30:46.524Z,18.90
2022-10-20T19:33:35.716Z,18.80
2022-10-20T19:36:27.108Z,18.90
2022-10-20T19:39:18.492Z,18.90
2022-10-20T19:42:09.503Z,18.80
2022-10-20T19:44:58.680Z,18.70
2022-10-20T19:47:47.817Z,18.40
2022-10-20T19:50:38.285Z,18.50
2022-10-20T19:53:29.581Z,18.60
2022-10-20T19:56:20.030Z,18.60
2022-10-20T19:59:09.341Z,18.70
2022-10-20T20:01:59.259Z,18.70
2022-10-20T20:04:48.768Z,18.70
2022-10-20T20:07:38.521Z,18.60
2022-10-20T20:10:30.601Z,18.60
2022-10-20T20:13:21.944Z,18.50
2022-10-20T20:16:11.355Z,18.60
2022-10-20T20:19:01.172Z,18.70
2022-10-20T20:21:50.695Z,18.50
2022-10-20T20:49:29.285Z,18.60
2022-10-20T20:52:18.177Z,18.60
2022-10-20T20:55:08.182Z,18.60
2022-10-20T20:57:57.798Z,18.70
2022-10-20T21:00:47.359Z,18.70
2022-10-20T21:03:37.327Z,18.70
2022-10-20T21:06:38.005Z,18.80
2022-10-20T21:09:37.926Z,18.80
2022-10-20T21:12:29.600Z,18.70
2022-10-20T21:15:21.042Z,18.40
2022-10-20T21:18:10.684Z,18.30
2022-10-20T21:21:00.305Z,18.30
2022-10-20T21:23:51.467Z,17.90
2022-10-20T21:26:42.006Z,18.10
2022-10-20T21:29:31.453Z,18.10
2022-10-20T21:32:22.231Z,18.20
2022-10-20T21:35:12.053Z,18.30
2022-10-20T21:38:01.580Z,18.50
2022-10-20T21:40:53.236Z,18.60
2022-10-20T21:43:43.659Z,18.70
2022-10-20T21:46:34.358Z,18.70
2022-10-20T21:49:26.669Z,18.70
2022-10-20T21:52:15.970Z,18.60
2022-10-20T21:55:07.072Z,18.60
2022-10-20T21:57:58.187Z,18.60
2022-10-20T22:00:51.345Z,18.50
2022-10-20T22:03:41.118Z,18.50
2022-10-20T22:06:30.421Z,18.50
2022-10-20T22:09:21.164Z,18.60
2022-10-20T22:12:10.787Z,18.60
2022-10-20T22:15:01.703Z,18.50
2022-10-20T22:17:51.375Z,18.50
2022-10-20T22:20:40.813Z,18.40
2022-10-20T22:23:30.259Z,18.50
2022-10-20T22:26:19.898Z,18.50
2022-10-20T22:29:11.052Z,18.50
2022-10-20T22:32:02.385Z,18.50
2022-10-20T22:34:51.619Z,18.50
2022-10-20T22:37:40.817Z,18.50
2022-10-20T22:40:30.376Z,18.40
2022-10-20T22:43:19.545Z,18.40
2022-10-20T22:46:09.134Z,18.30
2022-10-20T22:49:00.062Z,18.20
2022-10-20T22:51:49.073Z,18.00
2022-10-20T22:54:38.331Z,18.00
2022-10-20T22:57:27.867Z,18.10
2022-10-20T23:00:19.483Z,18.20
2022-10-20T23:03:08.782Z,18.30
2022-10-20T23:05:59.563Z,18.40
2022-10-20T23:08:51.528Z,18.40
2022-10-20T23:11:41.157Z,18.40
2022-10-20T23:14:30.837Z,18.40
2022-10-20T23:17:20.039Z,18.40
2022-10-20T23:20:10.018Z,18.30
2022-10-20T23:23:00.679Z,18.30
2022-10-20T23:25:51.243Z,18.10
2022-10-20T23:28:41.061Z,18.20
2022-10-20T23:31:31.983Z,18.20
2022-10-20T23:34:22.826Z,18.20
2022-10-20T23:37:12.159Z,18.20
2022-10-20T23:40:02.811Z,18.30
2022-10-20T23:42:52.203Z,18.30
2022-10-20T23:45:41.654Z,18.20
2022-10-20T23:48:30.890Z,18.10
2022-10-20T23:51:20.480Z,18.10
2022-10-20T23:54:09.310Z,18.00
2022-10-20T23:56:59.731Z,18.10
2022-10-20T23:59:49.025Z,18.20
